createdAt,value
2018-04-22T00:01:05.617Z,34.30
2018-04-22T00:03:33.099Z,37.70
2018-04-22T00:06:00.567Z,37.50
2018-04-22T00:08:28.046Z,34.33
2018-04-22T00:10:56.372Z,34.83
2018-04-22T00:13:23.888Z,33.53
2018-04-22T00:15:52.156Z,34.53
2018-04-22T00:18:20.437Z,35.27
2018-04-22T00:20:48.669Z,36.87
2018-04-22T00:23:16.178Z,33.40
2018-04-22T00:25:44.455Z,34.80
2018-04-22T00:28:12.701Z,35.60
2018-04-22T00:30:40.207Z,32.70
2018-04-22T00:33:07.724Z,31.87
2018-04-22T00:35:35.958Z,34.97
2018-04-22T00:38:04.247Z,35.90
2018-04-22T00:40:31.752Z,36.67
2018-04-22T00:43:00.036Z,33.77
2018-04-22T00:45:27.540Z,34.80
2018-04-22T00:47:55.064Z,36.30
2018-04-22T00:50:22.564Z,39.43
2018-04-22T00:52:50.042Z,40.80
2018-04-22T00:55:18.316Z,39.10
2018-04-22T00:57:45.833Z,36.87
2018-04-22T01:00:13.319Z,38.00
2018-04-22T01:02:40.829Z,38.53
2018-04-22T01:05:08.344Z,40.37
2018-04-22T01:07:35.841Z,41.53
2018-04-22T01:10:03.365Z,42.40
2018-04-22T01:12:31.598Z,34.53
2018-04-22T01:14:59.082Z,32.53
2018-04-22T01:17:26.592Z,35.17
2018-04-22T01:19:54.066Z,32.17
2018-04-22T01:22:21.575Z,33.53
2018-04-22T01:24:49.855Z,34.57
2018-04-22T01:27:18.129Z,35.60
2018-04-22T01:29:46.375Z,34.13
2018-04-22T01:32:13.888Z,37.57
2018-04-22T01:34:41.363Z,36.87
2018-04-22T01:37:08.869Z,40.77
2018-04-22T01:39:36.349Z,39.40
2018-04-22T01:42:03.821Z,36.30
2018-04-22T01:44:31.348Z,34.67
2018-04-22T01:46:59.582Z,33.87
2018-04-22T01:49:27.057Z,35.67
2018-04-22T01:51:54.573Z,31.70
2018-04-22T01:54:22.046Z,34.93
2018-04-22T01:56:49.515Z,33.70
2018-04-22T01:59:16.996Z,32.33
2018-04-22T02:01:44.466Z,33.27
2018-04-22T02:04:12.755Z,35.50
2018-04-22T02:06:40.982Z,38.23
2018-04-22T02:09:09.080Z,36.90
2018-04-22T02:11:36.553Z,37.03
2018-04-22T02:14:04.837Z,34.80
2018-04-22T02:16:32.299Z,34.97
2018-04-22T02:18:59.782Z,36.80
2018-04-22T02:21:27.287Z,36.13
2018-04-22T02:23:55.531Z,39.50
2018-04-22T02:26:23.815Z,37.50
2018-04-22T02:28:51.294Z,42.27
2018-04-22T02:31:19.564Z,37.87
2018-04-22T02:33:47.084Z,34.83
2018-04-22T02:36:14.585Z,40.87
2018-04-22T02:38:42.826Z,34.13
2018-04-22T02:41:10.307Z,35.20
2018-04-22T02:43:37.832Z,37.90
2018-04-22T02:46:06.091Z,36.07
2018-04-22T02:48:33.596Z,36.67
2018-04-22T02:51:01.079Z,41.17
2018-04-22T02:53:29.348Z,38.00
2018-04-22T02:55:57.651Z,38.23
2018-04-22T02:58:25.126Z,43.13
2018-04-22T03:00:52.613Z,34.43
2018-04-22T03:03:20.087Z,38.03
2018-04-22T03:05:48.335Z,36.03
2018-04-22T03:08:15.844Z,32.90
2018-04-22T03:10:43.338Z,35.57
2018-04-22T03:13:10.841Z,35.37
2018-04-22T03:15:39.077Z,37.50
2018-04-22T03:18:06.589Z,38.70
2018-04-22T03:20:34.067Z,36.10
2018-04-22T03:23:01.537Z,34.40
2018-04-22T03:25:29.820Z,33.77
2018-04-22T03:27:58.050Z,38.80
2018-04-22T03:30:25.536Z,36.00
2018-04-22T03:32:53.044Z,37.17
2018-04-22T03:37:55.294Z,34.43
2018-04-22T03:40:22.778Z,36.57
2018-04-22T03:42:50.251Z,33.63
2018-04-22T03:45:18.501Z,34.57
2018-04-22T03:47:45.970Z,33.23
2018-04-22T03:50:13.492Z,35.03
2018-04-22T03:52:40.995Z,41.53
2018-04-22T03:55:09.275Z,33.63
2018-04-22T03:57:37.540Z,35.07
2018-04-22T04:00:05.841Z,35.97
2018-04-22T04:02:34.070Z,40.47
2018-04-22T04:05:01.587Z,42.47
2018-04-22T04:07:29.093Z,43.43
2018-04-22T04:09:56.608Z,38.70
2018-04-22T04:12:24.108Z,37.90
2018-04-22T04:14:51.622Z,37.87
2018-04-22T04:17:19.094Z,39.53
2018-04-22T04:19:58.524Z,36.63
2018-04-22T04:22:37.979Z,37.37
2018-04-22T04:25:29.178Z,35.63
2018-04-22T04:27:56.644Z,35.93
2018-04-22T04:30:24.966Z,35.03
2018-04-22T04:32:53.206Z,36.97
2018-04-22T04:35:20.723Z,36.43
2018-04-22T04:37:48.188Z,38.73
2018-04-22T04:40:15.671Z,42.60
2018-04-22T04:42:43.172Z,39.83
2018-04-22T04:45:11.423Z,41.43
2018-04-22T04:47:38.890Z,46.17
2018-04-22T04:50:06.396Z,102.83
2018-04-22T04:52:33.910Z,96.37
2018-04-22T04:55:01.378Z,34.77
2018-04-22T04:57:29.655Z,49.07
2018-04-22T04:59:57.924Z,35.40
2018-04-22T05:02:26.202Z,138.03
2018-04-22T05:04:54.431Z,108.53
2018-04-22T05:07:21.913Z,91.10
2018-04-22T05:09:49.416Z,55.87
2018-04-22T05:12:16.932Z,35.73
2018-04-22T05:14:44.432Z,39.57
2018-04-22T05:17:11.947Z,31.53
2018-04-22T05:19:39.447Z,32.73
2018-04-22T05:22:06.968Z,31.07
2018-04-22T05:24:34.472Z,29.40
2018-04-22T05:27:02.005Z,27.60
2018-04-22T05:29:29.496Z,25.20
2018-04-22T05:31:56.986Z,26.90
2018-04-22T05:34:24.453Z,25.23
2018-04-22T05:36:51.984Z,25.37
2018-04-22T05:39:19.471Z,23.60
2018-04-22T05:41:47.060Z,24.27
2018-04-22T05:44:15.287Z,24.47
2018-04-22T05:46:42.787Z,24.67
2018-04-22T05:49:11.060Z,23.63
2018-04-22T05:51:39.302Z,23.80
2018-04-22T05:54:06.791Z,25.63
2018-04-22T05:56:35.088Z,26.07
2018-04-22T05:59:02.583Z,38.53
2018-04-22T06:01:31.088Z,40.07
2018-04-22T06:03:58.639Z,25.03
2018-04-22T06:06:26.150Z,22.80
2018-04-22T06:08:53.627Z,21.40
2018-04-22T06:11:21.185Z,21.47
2018-04-22T06:13:48.716Z,22.93
2018-04-22T06:16:16.259Z,21.95
2018-04-22T06:18:44.502Z,22.75
2018-04-22T06:21:12.016Z,21.92
2018-04-22T06:23:39.517Z,22.55
2018-04-22T06:26:07.065Z,22.13
2018-04-22T06:28:34.558Z,22.13
2018-04-22T06:31:02.868Z,25.02
2018-04-22T06:33:30.409Z,22.87
2018-04-22T06:35:57.971Z,21.90
2018-04-22T06:38:25.452Z,22.60
2018-04-22T06:40:52.966Z,23.17
2018-04-22T06:43:21.320Z,22.50
2018-04-22T06:45:48.827Z,22.05
2018-04-22T06:48:16.339Z,21.55
2018-04-22T06:50:44.596Z,21.17
2018-04-22T06:53:12.095Z,21.95
2018-04-22T06:55:40.387Z,21.62
2018-04-22T06:58:07.879Z,21.60
2018-04-22T07:00:35.345Z,22.45
2018-04-22T07:03:03.670Z,22.92
2018-04-22T07:05:31.202Z,21.60
2018-04-22T07:07:58.690Z,20.77
2018-04-22T07:10:26.158Z,22.55
2018-04-22T07:12:53.724Z,22.13
2018-04-22T07:15:21.200Z,22.87
2018-04-22T07:17:48.777Z,22.37
2018-04-22T07:20:16.293Z,22.48
2018-04-22T07:22:43.818Z,22.35
2018-04-22T07:25:12.049Z,22.33
2018-04-22T07:27:39.533Z,22.75
2018-04-22T07:30:07.036Z,23.20
2018-04-22T07:32:34.559Z,22.15
2018-04-22T07:35:02.063Z,21.30
2018-04-22T07:37:29.557Z,21.62
2018-04-22T07:39:57.063Z,20.40
2018-04-22T07:42:24.621Z,21.37
2018-04-22T07:44:52.871Z,23.25
2018-04-22T07:47:21.122Z,21.35
2018-04-22T07:49:48.594Z,21.42
2018-04-22T07:52:16.119Z,20.25
2018-04-22T07:54:43.632Z,20.80
2018-04-22T07:57:11.881Z,21.12
2018-04-22T07:59:39.358Z,20.77
2018-04-22T08:02:07.645Z,20.98
2018-04-22T08:04:35.979Z,19.87
2018-04-22T08:07:03.495Z,19.77
2018-04-22T08:09:31.009Z,19.73
2018-04-22T08:11:58.523Z,18.87
2018-04-22T08:14:25.990Z,19.35
2018-04-22T08:16:53.512Z,20.37
2018-04-22T08:19:20.978Z,21.42
2018-04-22T08:21:48.459Z,20.48
2018-04-22T08:24:15.976Z,18.25
2018-04-22T08:26:44.206Z,19.98
2018-04-22T08:29:11.742Z,20.35
2018-04-22T08:31:39.255Z,19.40
2018-04-22T08:34:06.772Z,30.65
2018-04-22T08:36:34.233Z,20.23
2018-04-22T08:39:01.730Z,19.60
2018-04-22T08:41:30.007Z,18.65
2018-04-22T08:43:58.353Z,17.85
2018-04-22T08:46:25.849Z,16.67
2018-04-22T08:48:54.098Z,17.48
2018-04-22T08:51:21.607Z,16.80
2018-04-22T08:53:49.102Z,17.70
2018-04-22T08:56:16.595Z,13.68
2018-04-22T08:58:44.838Z,17.70
2018-04-22T09:01:12.324Z,20.37
2018-04-22T09:03:40.579Z,16.12
2018-04-22T09:06:08.053Z,16.60
2018-04-22T09:08:36.356Z,17.60
2018-04-22T09:11:03.868Z,15.35
2018-04-22T09:13:31.400Z,14.52
2018-04-22T09:15:58.899Z,14.30
2018-04-22T09:18:27.188Z,15.38
2018-04-22T09:20:55.423Z,13.60
2018-04-22T09:23:22.908Z,15.68
2018-04-22T09:25:51.189Z,17.10
2018-04-22T09:28:19.471Z,14.13
2018-04-22T09:30:47.740Z,18.73
2018-04-22T09:33:15.989Z,15.05
2018-04-22T09:35:43.471Z,17.50
2018-04-22T09:38:11.760Z,13.95
2018-04-22T09:40:39.271Z,14.05
2018-04-22T09:43:06.803Z,15.40
2018-04-22T09:45:34.294Z,17.85
2018-04-22T09:48:01.773Z,12.48
2018-04-22T09:50:30.019Z,12.02
2018-04-22T09:52:57.539Z,12.88
2018-04-22T09:55:25.010Z,13.45
2018-04-22T09:57:52.537Z,11.38
2018-04-22T10:00:26.495Z,11.73
2018-04-22T10:02:54.780Z,9.93
2018-04-22T10:05:22.287Z,13.13
2018-04-22T10:07:49.812Z,12.15
2018-04-22T10:10:17.307Z,11.70
2018-04-22T10:12:44.828Z,10.98
2018-04-22T10:15:13.108Z,9.65
2018-04-22T10:17:40.623Z,11.73
2018-04-22T10:20:08.124Z,10.95
2018-04-22T10:22:35.683Z,10.20
2018-04-22T10:25:03.199Z,11.68
2018-04-22T10:27:30.666Z,11.05
2018-04-22T10:29:58.154Z,10.98
2018-04-22T10:32:26.395Z,11.60
2018-04-22T10:34:53.913Z,14.20
2018-04-22T10:37:21.394Z,11.05
2018-04-22T10:39:48.905Z,12.23
2018-04-22T10:42:16.382Z,8.45
2018-04-22T10:44:43.870Z,11.38
2018-04-22T10:47:11.330Z,9.40
2018-04-22T10:49:38.810Z,11.60
2018-04-22T10:52:06.282Z,11.00
2018-04-22T10:54:33.771Z,12.02
2018-04-22T10:57:01.239Z,8.93
2018-04-22T10:59:28.723Z,8.90
2018-04-22T11:01:56.236Z,12.57
2018-04-22T11:04:24.482Z,7.72
2018-04-22T11:06:51.951Z,9.52
2018-04-22T11:09:20.232Z,8.20
2018-04-22T11:11:48.570Z,8.25
2018-04-22T11:14:16.827Z,8.25
2018-04-22T11:16:44.279Z,7.22
2018-04-22T11:19:11.762Z,7.80
2018-04-22T11:21:39.273Z,9.65
2018-04-22T11:24:06.789Z,7.00
2018-04-22T11:26:34.292Z,6.82
2018-04-22T11:29:01.780Z,11.93
2018-04-22T11:31:29.284Z,9.90
2018-04-22T11:33:57.564Z,8.85
2018-04-22T11:36:25.836Z,10.35
2018-04-22T11:38:53.343Z,6.55
2018-04-22T11:41:20.827Z,9.80
2018-04-22T11:43:48.329Z,8.52
2018-04-22T11:46:15.842Z,8.35
2018-04-22T11:48:43.320Z,8.77
2018-04-22T11:51:10.848Z,9.00
2018-04-22T11:53:38.359Z,9.35
2018-04-22T11:56:05.942Z,9.40
2018-04-22T11:58:33.414Z,5.35
2018-04-22T12:01:00.937Z,7.35
2018-04-22T12:03:28.443Z,7.62
2018-04-22T12:05:55.919Z,9.13
2018-04-22T12:08:23.431Z,9.18
2018-04-22T12:10:50.906Z,6.40
2018-04-22T12:13:18.379Z,5.65
2018-04-22T12:15:45.894Z,4.93
2018-04-22T12:18:13.359Z,6.90
2018-04-22T12:20:40.829Z,6.72
2018-04-22T12:23:08.340Z,11.77
2018-04-22T12:25:36.616Z,8.93
2018-04-22T12:28:04.887Z,6.12
2018-04-22T12:30:33.168Z,6.57
2018-04-22T12:33:01.398Z,8.80
2018-04-22T12:35:28.915Z,5.40
2018-04-22T12:37:56.428Z,9.40
2018-04-22T12:40:23.924Z,7.18
2018-04-22T12:42:51.426Z,8.00
2018-04-22T12:45:18.944Z,8.02
2018-04-22T12:47:46.416Z,6.80
2018-04-22T12:50:13.947Z,7.78
2018-04-22T12:52:42.181Z,7.45
2018-04-22T12:55:09.709Z,6.12
2018-04-22T12:57:37.212Z,5.28
2018-04-22T13:00:04.733Z,5.40
2018-04-22T13:02:32.236Z,6.45
2018-04-22T13:04:59.752Z,9.27
2018-04-22T13:07:27.260Z,5.20
2018-04-22T13:09:55.510Z,5.55
2018-04-22T13:12:23.030Z,6.85
2018-04-22T13:14:50.537Z,12.60
2018-04-22T13:17:18.022Z,7.07
2018-04-22T13:19:45.546Z,10.25
2018-04-22T13:22:13.021Z,7.15
2018-04-22T13:24:41.254Z,5.62
2018-04-22T13:27:08.734Z,5.97
2018-04-22T13:29:36.200Z,6.82
2018-04-22T13:32:03.723Z,5.95
2018-04-22T13:34:31.212Z,6.47
2018-04-22T13:36:58.703Z,7.72
2018-04-22T13:39:26.307Z,7.43
2018-04-22T13:41:53.783Z,5.30
2018-04-22T13:44:21.257Z,6.65
2018-04-22T13:46:49.495Z,5.28
2018-04-22T13:49:17.008Z,8.57
2018-04-22T13:51:44.500Z,9.90
2018-04-22T13:54:11.982Z,10.32
2018-04-22T13:56:39.462Z,5.55
2018-04-22T13:59:07.694Z,6.37
2018-04-22T14:01:35.167Z,4.95
2018-04-22T14:04:02.678Z,6.95
2018-04-22T14:06:30.188Z,6.43
2018-04-22T14:08:57.654Z,8.05
2018-04-22T14:11:25.176Z,6.10
2018-04-22T14:13:52.680Z,5.53
2018-04-22T14:16:20.960Z,8.00
2018-04-22T14:18:49.224Z,7.90
2018-04-22T14:21:16.696Z,7.28
2018-04-22T14:23:44.927Z,5.78
2018-04-22T14:26:12.451Z,5.15
2018-04-22T14:28:39.951Z,9.68
2018-04-22T14:31:07.468Z,5.90
2018-04-22T14:33:34.928Z,7.53
2018-04-22T14:36:02.394Z,9.00
2018-04-22T14:38:29.874Z,5.85
2018-04-22T14:40:57.343Z,6.43
2018-04-22T14:43:24.855Z,6.87
2018-04-22T14:46:04.324Z,9.30
2018-04-22T14:48:31.836Z,9.77
2018-04-22T14:50:59.336Z,8.38
2018-04-22T14:53:26.814Z,10.35
2018-04-22T14:55:54.329Z,5.82
2018-04-22T14:58:21.853Z,5.37
2018-04-22T15:00:50.083Z,8.43
2018-04-22T15:03:17.610Z,8.85
2018-04-22T15:05:45.071Z,10.88
2018-04-22T15:08:12.554Z,5.45
2018-04-22T15:10:40.018Z,5.62
2018-04-22T15:13:07.543Z,6.57
2018-04-22T15:15:35.044Z,8.35
2018-04-22T15:18:02.514Z,6.18
2018-04-22T15:20:29.990Z,6.57
2018-04-22T15:22:58.272Z,5.00
2018-04-22T15:25:26.551Z,5.22
2018-04-22T15:27:54.799Z,9.13
2018-04-22T15:30:22.307Z,6.90
2018-04-22T15:32:49.827Z,5.62
2018-04-22T15:35:18.059Z,5.90
2018-04-22T15:37:45.570Z,5.35
2018-04-22T15:40:13.839Z,12.43
2018-04-22T15:42:42.104Z,9.85
2018-04-22T15:45:09.588Z,7.85
2018-04-22T15:47:37.071Z,5.25
2018-04-22T15:50:04.578Z,6.75
2018-04-22T15:52:32.092Z,8.52
2018-04-22T15:54:59.593Z,6.10
2018-04-22T15:57:27.080Z,7.53
2018-04-22T15:59:54.544Z,6.35
2018-04-22T16:02:22.027Z,8.18
2018-04-22T16:04:49.536Z,6.00
2018-04-22T16:07:17.769Z,5.75
2018-04-22T16:09:45.239Z,7.75
2018-04-22T16:12:12.719Z,7.53
2018-04-22T16:14:40.973Z,8.20
2018-04-22T16:17:08.442Z,9.65
2018-04-22T16:19:36.717Z,6.28
2018-04-22T16:22:04.193Z,9.80
2018-04-22T16:24:32.460Z,5.53
2018-04-22T16:27:00.747Z,6.32
2018-04-22T16:29:29.025Z,8.00
2018-04-22T16:31:56.488Z,5.32
2018-04-22T16:34:24.012Z,6.18
2018-04-22T16:36:51.520Z,5.70
2018-04-22T16:39:19.003Z,6.28
2018-04-22T16:41:46.512Z,5.55
2018-04-22T16:44:14.005Z,6.62
2018-04-22T16:46:41.507Z,6.03
2018-04-22T16:49:09.035Z,7.45
2018-04-22T16:51:36.535Z,4.47
2018-04-22T16:54:04.779Z,10.45
2018-04-22T16:56:32.288Z,13.77
2018-04-22T16:58:59.771Z,10.63
2018-04-22T17:01:27.276Z,5.40
2018-04-22T17:03:55.520Z,7.80
2018-04-22T17:06:23.023Z,5.18
2018-04-22T17:08:50.495Z,5.78
2018-04-22T17:11:17.968Z,10.45
2018-04-22T17:13:45.487Z,6.72
2018-04-22T17:16:13.728Z,5.07
2018-04-22T17:18:41.216Z,8.82
2018-04-22T17:21:09.488Z,15.43
2018-04-22T17:23:37.789Z,14.80
2018-04-22T17:26:05.297Z,9.23
2018-04-22T17:28:32.812Z,7.32
2018-04-22T17:31:00.316Z,11.38
2018-04-22T17:33:27.844Z,7.20
2018-04-22T17:35:55.308Z,5.07
2018-04-22T17:38:22.799Z,12.18
2018-04-22T17:40:51.071Z,8.40
2018-04-22T17:43:18.584Z,10.43
2018-04-22T17:45:46.095Z,9.85
2018-04-22T17:48:14.397Z,18.40
2018-04-22T17:50:41.871Z,38.83
2018-04-22T17:53:09.376Z,8.73
2018-04-22T17:55:36.892Z,7.47
2018-04-22T17:58:04.362Z,7.53
2018-04-22T18:00:31.844Z,7.07
2018-04-22T18:02:59.353Z,7.33
2018-04-22T18:05:26.872Z,12.67
2018-04-22T18:07:54.345Z,5.70
2018-04-22T18:10:22.583Z,5.40
2018-04-22T18:12:50.097Z,8.60
2018-04-22T18:15:17.574Z,8.87
2018-04-22T18:17:45.076Z,9.00
2018-04-22T18:20:12.586Z,5.70
2018-04-22T18:22:40.080Z,8.70
2018-04-22T18:25:07.592Z,9.47
2018-04-22T18:27:35.059Z,6.50
2018-04-22T18:30:02.576Z,7.97
2018-04-22T18:32:30.811Z,8.77
2018-04-22T18:34:58.354Z,9.87
2018-04-22T18:37:25.861Z,10.10
2018-04-22T18:39:54.143Z,7.97
2018-04-22T18:42:22.408Z,8.07
2018-04-22T18:44:50.692Z,7.33
2018-04-22T18:47:18.926Z,13.40
2018-04-22T18:49:46.411Z,9.30
2018-04-22T18:52:13.916Z,12.17
2018-04-22T18:54:41.396Z,8.67
2018-04-22T18:57:08.899Z,9.77
2018-04-22T18:59:37.187Z,12.57
2018-04-22T19:02:04.688Z,8.23
2018-04-22T19:04:32.231Z,8.93
2018-04-22T19:06:59.748Z,10.60
2018-04-22T19:09:27.306Z,14.87
2018-04-22T19:11:55.545Z,11.37
2018-04-22T19:14:23.020Z,10.87
2018-04-22T19:16:50.490Z,15.70
2018-04-22T19:19:18.883Z,9.80
2018-04-22T19:21:47.039Z,10.17
2018-04-22T19:24:15.332Z,16.67
2018-04-22T19:26:43.563Z,12.70
2018-04-22T19:29:11.594Z,9.90
2018-04-22T19:31:39.058Z,16.63
2018-04-22T19:34:06.589Z,11.13
2018-04-22T19:36:34.064Z,9.17
2018-04-22T19:39:01.532Z,17.50
2018-04-22T19:41:29.024Z,22.53
2018-04-22T19:43:56.495Z,11.40
2018-04-22T19:46:24.004Z,9.93
2018-04-22T19:48:51.569Z,11.97
2018-04-22T19:51:19.109Z,16.03
2018-04-22T19:53:46.591Z,13.10
2018-04-22T19:56:14.057Z,19.63
2018-04-22T19:58:41.538Z,12.07
2018-04-22T20:01:09.023Z,9.87
2018-04-22T20:03:36.515Z,12.50
2018-04-22T20:06:04.033Z,10.97
2018-04-22T20:08:32.270Z,11.03
2018-04-22T20:10:59.755Z,9.43
2018-04-22T20:13:27.991Z,9.73
2018-04-22T20:15:55.474Z,9.10
2018-04-22T20:18:22.938Z,9.37
2018-04-22T20:20:51.238Z,12.93
2018-04-22T20:23:19.508Z,11.93
2018-04-22T20:25:47.811Z,9.83
2018-04-22T20:28:15.336Z,9.23
2018-04-22T20:30:43.566Z,10.10
2018-04-22T20:33:11.057Z,9.73
2018-04-22T20:35:39.364Z,9.93
2018-04-22T20:38:06.949Z,15.00
2018-04-22T20:40:34.422Z,12.00
2018-04-22T20:43:01.896Z,10.37
2018-04-22T20:45:29.404Z,9.63
2018-04-22T20:47:56.919Z,11.20
2018-04-22T20:50:24.496Z,21.03
2018-04-22T20:52:52.768Z,11.40
2018-04-22T20:55:21.052Z,9.97
2018-04-22T20:57:49.331Z,10.20
2018-04-22T21:00:16.855Z,11.53
2018-04-22T21:02:44.329Z,12.33
2018-04-22T21:05:12.616Z,9.90
2018-04-22T21:07:40.891Z,11.93
2018-04-22T21:10:09.183Z,10.77
2018-04-22T21:12:36.665Z,10.67
2018-04-22T21:15:04.940Z,10.57
2018-04-22T21:17:32.419Z,13.37
2018-04-22T21:19:59.928Z,12.90
2018-04-22T21:22:27.447Z,10.83
2018-04-22T21:24:54.948Z,10.63
2018-04-22T21:27:22.460Z,9.70
2018-04-22T21:29:49.925Z,9.97
2018-04-22T21:32:17.443Z,9.63
2018-04-22T21:34:44.963Z,10.67
2018-04-22T21:37:13.248Z,10.67
2018-04-22T21:39:40.716Z,10.37
2018-04-22T21:42:08.194Z,12.27
2018-04-22T21:44:35.707Z,11.50
2018-04-22T21:47:03.992Z,12.57
2018-04-22T21:49:31.496Z,12.90
2018-04-22T21:51:59.015Z,12.87
2018-04-22T21:54:26.511Z,10.83
2018-04-22T21:56:53.995Z,13.00
2018-04-22T21:59:21.466Z,12.07
2018-04-22T22:01:49.763Z,11.00
2018-04-22T22:04:17.267Z,13.67
2018-04-22T22:06:44.785Z,36.40
2018-04-22T22:09:12.293Z,16.50
2018-04-22T22:11:39.804Z,12.33
2018-04-22T22:14:07.304Z,11.37
2018-04-22T22:16:34.825Z,12.00
2018-04-22T22:19:02.290Z,11.07
2018-04-22T22:21:29.775Z,11.50
2018-04-22T22:23:57.252Z,13.83
2018-04-22T22:26:24.777Z,14.30
2018-04-22T22:28:52.336Z,18.33
2018-04-22T22:31:19.839Z,16.57
2018-04-22T22:33:48.070Z,15.27
2018-04-22T22:36:15.563Z,14.97
2018-04-22T22:38:43.844Z,12.73
2018-04-22T22:41:12.091Z,13.27
2018-04-22T22:43:39.599Z,12.37
2018-04-22T22:46:07.125Z,15.43
2018-04-22T22:48:34.635Z,14.43
2018-04-22T22:51:02.099Z,16.50
2018-04-22T22:53:29.625Z,14.17
2018-04-22T22:55:57.133Z,15.27
2018-04-22T22:58:24.643Z,16.13
2018-04-22T23:00:52.149Z,12.47
2018-04-22T23:03:19.663Z,16.60
2018-04-22T23:05:47.138Z,12.43
2018-04-22T23:08:14.655Z,11.03
2018-04-22T23:10:42.883Z,14.40
2018-04-22T23:13:10.363Z,10.23
2018-04-22T23:15:37.875Z,15.07
2018-04-22T23:18:05.357Z,12.43
2018-04-22T23:20:32.860Z,9.83
2018-04-22T23:23:01.098Z,10.10
2018-04-22T23:25:28.607Z,9.10
2018-04-22T23:27:56.131Z,10.80
2018-04-22T23:30:23.632Z,11.73
2018-04-22T23:32:51.122Z,10.60
2018-04-22T23:35:18.623Z,14.30
2018-04-22T23:37:46.917Z,9.00
2018-04-22T23:40:14.379Z,8.87
2018-04-22T23:42:41.862Z,11.23
2018-04-22T23:45:09.331Z,8.20
2018-04-22T23:47:36.853Z,8.60
2018-04-22T23:50:04.355Z,8.50
2018-04-22T23:52:31.830Z,8.67
2018-04-22T23:55:00.115Z,8.40
2018-04-22T23:57:28.368Z,10.10
2018-04-22T23:59:55.863Z,9.60
